Time;durP1;ratioP1;P1;durP2;ratioP2;P2;SDS_P1;SDS_P2;PMS_P1;PMS_P2;Temp;Humidity;BMP_temperature;BMP_pressure;BME280_temperature;BME280_humidity;BME280_pressure;Samples;Min_cycle;Max_cycle;Signal;HPM_P1;HPM_P2
2023/11/04 00:00:43;;;;;;;20.93;7.37;;;;;;;15.25;98.29;99038.88;122788;1106;104270;-78
2023/11/04 00:03:35;;;;;;;24.30;8.10;;;;;;;15.26;98.11;99045.94;123007;1109;105241;-77
2023/11/04 00:06:08;;;;;;;20.13;7.33;;;;;;;15.27;98.03;99053.85;123408;1109;104777;-77
2023/11/04 00:08:40;;;;;;;;;;;;;;;15.27;98.90;99051.21;124659;1108;104261;-77
2023/11/04 00:11:11;;;;;;;19.47;7.37;;;;;;;15.32;98.14;99068.78;124826;1109;104248;-77
2023/11/04 00:13:42;;;;;;;17.95;7.35;;;;;;;15.32;98.29;99064.39;124006;1109;104185;-77
2023/11/04 00:16:14;;;;;;;21.43;7.60;;;;;;;15.35;98.18;99059.09;122864;1108;104300;-76
2023/11/04 00:18:45;;;;;;;22.67;7.20;;;;;;;15.36;98.86;99057.31;122648;1106;104742;-78
2023/11/04 00:21:16;;;;;;;19.75;7.70;;;;;;;15.37;99.19;99056.44;122856;1108;104358;-79
2023/11/04 00:23:48;;;;;;;26.27;7.83;;;;;;;15.39;98.85;99062.58;122787;1109;104268;-77
2023/11/04 00:26:20;;;;;;;22.57;7.53;;;;;;;15.41;98.64;99066.08;122775;1106;104383;-78
2023/11/04 00:28:55;;;;;;;17.77;7.73;;;;;;;15.41;99.34;99066.98;122743;1109;104361;-77
2023/11/04 00:31:27;;;;;;;19.77;8.00;;;;;;;15.43;98.57;99057.26;122675;1109;104438;-78
2023/11/04 00:33:59;;;;;;;23.00;8.23;;;;;;;15.43;99.22;99041.41;122776;1108;104290;-77
2023/11/04 00:36:31;;;;;;;23.10;7.75;;;;;;;15.43;99.38;99033.47;122752;1108;104775;-78
2023/11/04 00:39:02;;;;;;;17.57;8.10;;;;;;;15.43;98.99;99041.41;122698;1109;104294;-78
2023/11/04 00:41:34;;;;;;;20.70;8.20;;;;;;;15.44;99.73;99045.81;122943;1109;104414;-77
2023/11/04 00:44:06;;;;;;;19.65;8.00;;;;;;;15.46;99.57;99053.73;123032;1108;104261;-77
2023/11/04 00:46:38;;;;;;;17.43;7.63;;;;;;;15.47;99.04;99052.82;122863;1108;104261;-77
2023/11/04 00:49:10;;;;;;;24.27;7.43;;;;;;;15.48;99.22;99056.36;122880;1108;104242;-77
2023/11/04 00:51:41;;;;;;;14.70;7.03;;;;;;;15.49;99.98;99055.45;122820;1109;104489;-78
2023/11/04 00:54:12;;;;;;;23.67;8.00;;;;;;;15.51;99.17;99048.41;122823;1108;104265;-78
2023/11/04 00:56:44;;;;;;;22.83;9.10;;;;;;;15.50;100.00;99039.58;122970;1109;104386;-78
2023/11/04 00:59:16;;;;;;;25.50;7.73;;;;;;;15.51;99.55;99049.27;122941;1109;104296;-77
2023/11/04 01:01:47;;;;;;;22.83;7.97;;;;;;;15.52;100.00;99058.07;122882;1108;104319;-79
2023/11/04 01:04:19;;;;;;;19.53;7.77;;;;;;;15.52;99.41;99045.75;123010;1108;104293;-79
2023/11/04 01:06:50;;;;;;;22.07;7.87;;;;;;;15.54;99.46;99045.74;122945;1109;104354;-78
2023/11/04 01:09:21;;;;;;;19.90;8.10;;;;;;;15.54;99.74;99045.74;122872;1108;104446;-79
2023/11/04 01:11:52;;;;;;;22.70;8.00;;;;;;;15.55;99.69;99047.47;122921;1109;104249;-79
2023/11/04 01:14:24;;;;;;;24.30;8.93;;;;;;;15.55;100.00;99053.66;122967;1108;104370;-78
2023/11/04 01:16:55;;;;;;;21.55;7.90;;;;;;;15.57;99.73;99064.22;122773;1109;104338;-78
2023/11/04 01:19:26;;;;;;;22.27;8.47;;;;;;;15.58;100.00;99073.89;122916;1109;104340;-79
2023/11/04 01:21:58;;;;;;;16.70;7.50;;;;;;;15.59;100.00;99068.59;122797;1109;104740;-78
2023/11/04 01:24:29;;;;;;;19.27;7.60;;;;;;;15.59;100.00;99060.66;122941;1108;104296;-79
2023/11/04 01:27:00;;;;;;;19.83;8.17;;;;;;;15.59;99.99;99050.08;122880;1108;104338;-78
2023/11/04 01:29:31;;;;;;;22.85;8.60;;;;;;;15.58;100.00;99048.35;123023;1109;104696;-78
2023/11/04 01:32:03;;;;;;;23.75;8.90;;;;;;;15.58;100.00;99032.48;122964;1108;105709;-78
2023/11/04 01:34:34;;;;;;;23.87;8.20;;;;;;;15.60;100.00;99037.77;122929;1109;104351;-78
2023/11/04 01:37:05;;;;;;;23.93;9.37;;;;;;;15.61;100.00;99036.85;122771;1109;104290;-78
2023/11/04 01:39:37;;;;;;;23.33;9.13;;;;;;;15.61;100.00;99037.75;122897;1109;104364;-78
2023/11/04 01:42:08;;;;;;;23.70;9.00;;;;;;;15.61;100.00;99048.33;122830;1109;104290;-77
2023/11/04 01:44:40;;;;;;;22.40;9.37;;;;;;;15.62;100.00;99044.77;122894;1108;104317;-79
2023/11/04 01:47:12;;;;;;;23.30;9.20;;;;;;;15.63;100.00;99038.60;122748;1109;104407;-78
2023/11/04 01:49:44;;;;;;;24.07;9.03;;;;;;;15.63;100.00;99032.45;123031;1107;104239;-78
2023/11/04 01:52:16;;;;;;;23.27;9.70;;;;;;;15.63;100.00;99029.80;122957;1109;104376;-78
2023/11/04 01:54:48;;;;;;;19.67;9.00;;;;;;;15.63;100.00;99045.67;123068;1109;104332;-79
2023/11/04 01:57:19;;;;;;;20.40;9.10;;;;;;;15.65;100.00;99054.45;122983;1109;104364;-80
2023/11/04 01:59:51;;;;;;;29.43;9.23;;;;;;;15.66;100.00;99055.32;123039;1109;104182;-78
2023/11/04 02:02:23;;;;;;;29.67;9.97;;;;;;;15.67;100.00;99051.80;122929;1109;104286;-79
2023/11/04 02:04:56;;;;;;;22.97;9.33;;;;;;;15.66;100.00;99050.03;122778;1108;112156;-79
2023/11/04 02:07:28;;;;;;;25.62;9.83;;;;;;;15.67;100.00;99041.22;123380;1106;104197;-79
2023/11/04 02:09:59;;;;;;;26.73;9.97;;;;;;;15.66;100.00;99028.88;123025;1108;104384;-78
2023/11/04 02:12:32;;;;;;;25.20;9.63;;;;;;;15.63;100.00;99025.38;122994;1109;104246;-78
2023/11/04 02:15:04;;;;;;;28.17;9.57;;;;;;;15.63;100.00;99027.16;122865;1109;104323;-78
2023/11/04 02:17:35;;;;;;;25.77;10.47;;;;;;;15.62;100.00;99018.33;123056;1109;104716;-77
2023/11/04 02:20:11;;;;;;;24.63;10.93;;;;;;;15.63;100.00;99024.52;122956;1109;104382;-78
2023/11/04 02:22:43;;;;;;;29.33;10.73;;;;;;;15.63;100.00;99016.59;124774;1106;102038;-78
2023/11/04 02:25:16;;;;;;;29.00;9.97;;;;;;;15.63;100.00;99020.09;122733;1109;104367;-79
2023/11/04 02:27:47;;;;;;;23.65;10.00;;;;;;;15.66;100.00;99020.95;123090;1109;104245;-80
2023/11/04 02:30:19;;;;;;;25.67;10.10;;;;;;;15.67;100.00;99020.07;122994;1109;104356;-78
2023/11/04 02:32:51;;;;;;;24.40;11.23;;;;;;;15.69;100.00;99020.92;122950;1109;104271;-79
2023/11/04 02:35:22;;;;;;;24.40;10.50;;;;;;;15.69;100.00;99007.70;123230;1106;104307;-80
2023/11/04 02:37:53;;;;;;;28.93;11.07;;;;;;;15.69;100.00;99029.75;122971;1108;104779;-78
2023/11/04 02:40:25;;;;;;;25.15;10.15;;;;;;;15.71;100.00;99030.61;122966;1107;104280;-79
2023/11/04 02:42:57;;;;;;;31.77;10.23;;;;;;;15.70;100.00;99031.48;123020;1109;104233;-78
2023/11/04 02:45:29;;;;;;;26.60;11.00;;;;;;;15.71;100.00;99027.97;122963;1109;104294;-79
2023/11/04 02:48:00;;;;;;;25.83;11.70;;;;;;;15.70;100.00;99031.48;123116;1109;104295;-79
2023/11/04 02:50:35;;;;;;;28.13;10.57;;;;;;;15.71;100.00;99019.17;122874;1109;104715;-79
2023/11/04 02:53:07;;;;;;;28.23;11.07;;;;;;;15.69;100.00;99018.28;123212;1109;104280;-78
2023/11/04 02:55:38;;;;;;;27.60;11.63;;;;;;;15.69;100.00;99024.47;122822;1109;104374;-79
2023/11/04 02:58:09;;;;;;;27.10;11.67;;;;;;;15.70;100.00;99022.69;122864;1109;104277;-78
2023/11/04 03:00:40;;;;;;;27.83;11.70;;;;;;;15.71;100.00;99024.45;122776;1108;104722;-79
2023/11/04 03:03:12;;;;;;;31.60;12.40;;;;;;;15.71;100.00;99013.88;122782;1107;104419;-79
2023/11/04 03:05:43;;;;;;;30.85;12.65;;;;;;;15.72;100.00;98999.74;122861;1109;104678;-79
2023/11/04 03:08:15;;;;;;;31.40;13.10;;;;;;;15.74;100.00;99000.63;122776;1109;104274;-79
2023/11/04 03:10:46;;;;;;;32.00;13.10;;;;;;;15.72;100.00;98995.35;122873;1107;104242;-78
2023/11/04 03:13:19;;;;;;;26.70;12.87;;;;;;;15.73;100.00;98997.09;122791;1109;104367;-78
2023/11/04 03:15:50;;;;;;;25.80;12.85;;;;;;;15.73;100.00;98990.93;122720;1108;104400;-78
2023/11/04 03:18:22;;;;;;;29.40;13.10;;;;;;;15.74;100.00;98997.98;122798;1108;104351;-77
2023/11/04 03:20:54;;;;;;;27.65;12.65;;;;;;;15.73;100.00;98994.44;122782;1108;104255;-78
2023/11/04 03:23:26;;;;;;;29.20;13.33;;;;;;;15.74;100.00;98990.91;122762;1109;104262;-79
2023/11/04 03:25:57;;;;;;;34.23;13.40;;;;;;;15.75;100.00;98982.10;122803;1108;104255;-78
2023/11/04 03:28:28;;;;;;;32.30;13.90;;;;;;;15.76;100.00;98980.33;122735;1109;104336;-79
2023/11/04 03:31:00;;;;;;;34.73;14.63;;;;;;;15.75;100.00;98973.27;122846;1109;104304;-79
2023/11/04 03:33:32;;;;;;;32.00;13.43;;;;;;;15.76;100.00;98975.90;122767;1109;104329;-79
2023/11/04 03:36:04;;;;;;;33.20;14.23;;;;;;;15.77;100.00;98979.48;122938;1109;104280;-78
2023/11/04 03:38:35;;;;;;;35.55;14.90;;;;;;;15.76;100.00;98960.03;122687;1109;104352;-79
2023/11/04 03:41:07;;;;;;;34.90;15.13;;;;;;;15.77;100.00;98956.54;122748;1108;104402;-79
2023/11/04 03:43:38;;;;;;;36.77;15.27;;;;;;;15.79;100.00;98964.45;122795;1108;104268;-79
2023/11/04 03:46:10;;;;;;;42.90;15.80;;;;;;;15.78;100.00;98958.30;122744;1109;104280;-79
2023/11/04 03:48:41;;;;;;;34.13;15.83;;;;;;;15.77;100.00;98945.96;122640;1108;104336;-77
2023/11/04 03:51:13;;;;;;;33.90;15.37;;;;;;;15.78;100.00;98942.44;122750;1109;104511;-79
2023/11/04 03:53:44;;;;;;;34.77;15.97;;;;;;;15.79;100.00;98930.08;122753;1108;104418;-79
2023/11/04 03:56:15;;;;;;;32.90;16.80;;;;;;;15.80;100.00;98929.20;123012;1109;104224;-79
2023/11/04 03:58:46;;;;;;;35.40;16.50;;;;;;;15.80;100.00;98923.91;123092;1108;104374;-78
2023/11/04 04:01:18;;;;;;;38.77;16.30;;;;;;;15.80;100.00;98932.71;123048;1108;104347;-80
2023/11/04 04:03:49;;;;;;;34.03;15.87;;;;;;;15.83;100.00;98944.14;123050;1109;104262;-79
2023/11/04 04:06:20;;;;;;;37.87;16.87;;;;;;;15.84;100.00;98953.84;122889;1108;104381;-79
2023/11/04 04:08:52;;;;;;;40.00;16.67;;;;;;;15.84;100.00;98944.12;122998;1107;104380;-79
2023/11/04 04:11:26;;;;;;;37.43;16.90;;;;;;;15.87;100.00;98940.58;122852;1108;104405;-78
2023/11/04 04:13:58;;;;;;;32.97;16.53;;;;;;;15.88;100.00;98950.24;122953;1109;104271;-78
2023/11/04 04:16:29;;;;;;;34.80;17.60;;;;;;;15.90;100.00;98948.48;122942;1108;104340;-78
2023/11/04 04:19:00;;;;;;;30.37;16.73;;;;;;;15.91;100.00;98942.28;123041;1108;104441;-78
2023/11/04 04:21:31;;;;;;;38.87;18.23;;;;;;;15.91;100.00;98939.63;123156;1109;104191;-79
2023/11/04 04:24:03;;;;;;;35.27;17.80;;;;;;;15.93;100.00;98954.61;123404;1108;104261;-79
2023/11/04 04:26:34;;;;;;;35.27;17.17;;;;;;;15.95;100.00;98947.52;123066;1108;104367;-78
2023/11/04 04:29:06;;;;;;;36.43;17.30;;;;;;;15.97;100.00;98944.86;123028;1109;104212;-79
2023/11/04 04:31:37;;;;;;;32.70;16.90;;;;;;;15.99;100.00;98932.51;122924;1108;104258;-79
2023/11/04 04:34:08;;;;;;;36.10;18.23;;;;;;;16.00;100.00;98939.53;122993;1106;104223;-79
2023/11/04 04:36:40;;;;;;;34.87;18.33;;;;;;;16.02;100.00;98939.52;123160;1109;104393;-79
2023/11/04 04:39:12;;;;;;;39.80;18.13;;;;;;;16.04;100.00;98929.81;123031;1108;104207;-80
2023/11/04 04:41:44;;;;;;;36.67;17.37;;;;;;;16.05;100.00;98916.56;122997;1107;104261;-79
2023/11/04 04:44:16;;;;;;;43.90;19.43;;;;;;;16.07;100.00;98912.13;122929;1108;104734;-78
2023/11/04 04:46:49;;;;;;;36.70;18.37;;;;;;;16.08;100.00;98911.23;122944;1108;104290;-79
2023/11/04 04:49:21;;;;;;;35.00;18.17;;;;;;;16.10;100.00;98901.50;122963;1109;104367;-78
2023/11/04 04:51:52;;;;;;;35.60;18.63;;;;;;;16.12;100.00;98901.48;122908;1109;104366;-78
2023/11/04 04:54:23;;;;;;;38.25;19.10;;;;;;;16.13;100.00;98898.81;122906;1109;104358;-79
2023/11/04 04:56:55;;;;;;;37.70;18.20;;;;;;;16.15;100.00;98891.72;122875;1108;104338;-79
2023/11/04 04:59:26;;;;;;;36.63;18.67;;;;;;;16.16;100.00;98882.91;122983;1109;104303;-80
2023/11/04 05:01:58;;;;;;;43.50;20.23;;;;;;;16.18;100.00;98881.10;123034;1109;104294;-79
2023/11/04 05:04:29;;;;;;;40.07;20.13;;;;;;;16.20;100.00;98882.86;123173;1109;104230;-80
2023/11/04 05:07:00;;;;;;;39.07;19.27;;;;;;;16.23;100.00;98898.70;123150;1109;104313;-78
2023/11/04 05:09:32;;;;;;;37.25;21.05;;;;;;;16.23;100.00;98911.94;122921;1109;104352;-78
2023/11/04 05:12:03;;;;;;;39.35;21.00;;;;;;;16.24;100.00;98918.98;122982;1109;104219;-78
2023/11/04 05:14:35;;;;;;;34.77;19.37;;;;;;;16.26;100.00;98933.06;122909;1108;104238;-78
2023/11/04 05:17:06;;;;;;;39.43;21.27;;;;;;;16.27;100.00;98943.64;123094;1109;104344;-78
2023/11/04 05:19:37;;;;;;;39.80;20.83;;;;;;;16.32;100.00;98946.23;122963;1106;104369;-78
2023/11/04 05:22:09;;;;;;;33.73;20.23;;;;;;;16.33;100.00;98961.19;123134;1109;104453;-78
2023/11/04 05:24:41;;;;;;;38.13;19.63;;;;;;;16.35;100.00;98962.94;123265;1108;104284;-78
2023/11/04 05:27:12;;;;;;;43.27;21.23;;;;;;;16.37;100.00;98962.92;123190;1109;104210;-78
2023/11/04 05:29:44;;;;;;;38.30;21.03;;;;;;;16.40;100.00;98952.29;123060;1109;104224;-79
2023/11/04 05:32:17;;;;;;;40.00;21.33;;;;;;;16.42;100.00;98952.27;123272;1107;104283;-78
2023/11/04 05:34:48;;;;;;;50.23;21.67;;;;;;;16.44;100.00;98971.65;123136;1109;104374;-77
2023/11/04 05:37:20;;;;;;;39.83;21.30;;;;;;;16.46;100.00;98969.88;123115;1108;104265;-77
2023/11/04 05:39:51;;;;;;;37.43;21.37;;;;;;;16.46;100.00;98959.29;122984;1108;104287;-78
2023/11/04 05:42:23;;;;;;;42.13;22.77;;;;;;;16.45;100.00;98945.16;123064;1108;104258;-78
2023/11/04 05:44:57;;;;;;;38.83;21.07;;;;;;;16.45;100.00;98963.69;123148;1108;104178;-78
2023/11/04 05:47:26;;;;;;;;;;;;;;;16.46;100.00;98967.23;123075;1109;104686;-78
2023/11/04 05:49:58;;;;;;;39.53;20.90;;;;;;;16.48;100.00;98962.78;123069;1109;104649;-78
2023/11/04 05:52:29;;;;;;;36.13;21.43;;;;;;;16.50;100.00;98959.23;123260;1108;104291;-80
2023/11/04 05:55:00;;;;;;;38.35;21.70;;;;;;;16.53;100.00;98959.19;123221;1108;104315;-78
2023/11/04 05:57:31;;;;;;;45.43;22.50;;;;;;;16.57;100.00;98943.27;123690;1109;104242;-78
2023/11/04 06:00:07;;;;;;;41.70;22.40;;;;;;;16.60;100.00;98933.50;124132;1109;104498;-78
2023/11/04 06:02:41;;;;;;;41.27;22.83;;;;;;;16.63;100.00;98932.59;124088;1108;104201;-78
2023/11/04 06:05:12;;;;;;;;;;;;;;;16.67;100.00;98931.63;124657;1108;104198;-79
2023/11/04 06:07:44;;;;;;;38.00;21.25;;;;;;;16.69;100.00;98949.26;123014;1108;104255;-77
2023/11/04 06:10:15;;;;;;;41.00;22.20;;;;;;;16.75;100.00;98947.41;122951;1108;104355;-80
2023/11/04 06:12:47;;;;;;;40.50;23.53;;;;;;;16.78;100.00;98957.97;122762;1109;104403;-78
2023/11/04 06:15:19;;;;;;;42.00;21.83;;;;;;;16.79;100.00;98952.64;122887;1109;104296;-77
2023/11/04 06:17:50;;;;;;;41.57;22.93;;;;;;;16.81;100.00;98948.22;122703;1109;104271;-78
2023/11/04 06:20:21;;;;;;;37.77;21.50;;;;;;;16.83;100.00;98953.50;122703;1109;104344;-77
2023/11/04 06:22:53;;;;;;;42.10;22.83;;;;;;;16.84;100.00;98953.48;122589;1109;104308;-77
2023/11/04 06:25:24;;;;;;;38.03;22.93;;;;;;;16.86;100.00;98949.05;122782;1108;104374;-78
2023/11/04 06:27:55;;;;;;;43.10;23.80;;;;;;;16.88;100.00;98952.55;122715;1106;104274;-76
2023/11/04 06:30:26;;;;;;;41.50;23.53;;;;;;;16.91;100.00;98958.69;122770;1107;104242;-76
2023/11/04 06:32:58;;;;;;;39.43;22.57;;;;;;;16.94;100.00;98955.99;123025;1108;104368;-76
2023/11/04 06:35:29;;;;;;;40.20;22.40;;;;;;;16.96;100.00;98962.17;122493;1109;104300;-77
2023/11/04 06:38:01;;;;;;;43.13;22.10;;;;;;;16.98;100.00;98960.36;122564;1109;104465;-76
2023/11/04 06:40:35;;;;;;;40.07;22.73;;;;;;;16.99;100.00;98952.39;122749;1109;104363;-77
2023/11/04 06:43:07;;;;;;;38.25;21.55;;;;;;;17.01;100.00;98958.53;123194;1109;104287;-76
2023/11/04 06:45:39;;;;;;;37.23;22.67;;;;;;;17.05;100.00;98951.44;122876;1108;104482;-75
2023/11/04 06:48:10;;;;;;;41.43;21.87;;;;;;;17.05;100.00;98954.95;123089;1109;104280;-76
2023/11/04 06:50:41;;;;;;;40.60;20.95;;;;;;;17.10;100.00;98952.23;122944;1109;104460;-77
2023/11/04 06:53:13;;;;;;;40.20;21.75;;;;;;;17.13;100.00;98941.58;122919;1108;104237;-76
2023/11/04 06:55:44;;;;;;;35.97;21.77;;;;;;;17.16;100.00;98928.28;123021;1108;104291;-76
2023/11/04 06:58:16;;;;;;;37.37;22.10;;;;;;;17.20;100.00;98929.98;123164;1108;104261;-76
2023/11/04 07:00:47;;;;;;;34.53;21.33;;;;;;;17.25;100.00;98922.83;123137;1109;118661;-78
2023/11/04 07:03:18;;;;;;;34.80;21.37;;;;;;;17.30;100.00;98929.84;122939;1108;104358;-76
2023/11/04 07:05:50;;;;;;;36.33;21.37;;;;;;;17.33;100.00;98930.66;122802;1109;104373;-76
2023/11/04 07:08:21;;;;;;;35.20;21.00;;;;;;;17.36;100.00;98927.09;122757;1108;104214;-77
2023/11/04 07:10:53;;;;;;;36.77;20.43;;;;;;;17.38;100.00;98917.31;122682;1109;104258;-78
2023/11/04 07:13:25;;;;;;;31.83;19.07;;;;;;;17.43;100.00;98923.41;122615;1108;104450;-76
2023/11/04 07:15:57;;;;;;;33.10;19.43;;;;;;;17.47;100.00;98930.42;122591;1109;104235;-76
2023/11/04 07:18:28;;;;;;;33.77;19.00;;;;;;;17.50;100.00;98934.77;122640;1109;104360;-76
2023/11/04 07:21:00;;;;;;;29.77;18.50;;;;;;;17.54;100.00;98933.83;122817;1109;105682;-77
2023/11/04 07:23:32;;;;;;;35.83;17.90;;;;;;;17.56;100.00;98929.36;122728;1106;104736;-77
2023/11/04 07:26:04;;;;;;;31.33;16.77;;;;;;;17.57;100.00;98926.69;122700;1106;104296;-77
2023/11/04 07:28:35;;;;;;;30.30;16.93;;;;;;;17.63;100.00;98930.15;122869;1109;104287;-77
2023/11/04 07:31:08;;;;;;;33.53;18.00;;;;;;;17.66;100.00;98936.27;122609;1108;104300;-76
2023/11/04 07:33:39;;;;;;;28.80;15.67;;;;;;;17.71;100.00;98942.34;122613;1107;104294;-77
2023/11/04 07:36:12;;;;;;;28.30;14.97;;;;;;;17.74;100.00;98931.68;123002;1109;104286;-78
2023/11/04 07:38:43;;;;;;;28.73;14.17;;;;;;;17.77;100.00;98938.72;122821;1108;104300;-79
2023/11/04 07:41:15;;;;;;;30.10;15.03;;;;;;;17.80;100.00;98928.05;122747;1109;104405;-78
2023/11/04 07:43:46;;;;;;;30.40;14.17;;;;;;;17.85;100.00;98922.66;122679;1108;104285;-77
2023/11/04 07:46:18;;;;;;;24.97;13.80;;;;;;;17.87;100.00;98929.70;122680;1108;104312;-76
2023/11/04 07:48:49;;;;;;;27.23;12.67;;;;;;;17.90;100.00;98923.47;122664;1109;104370;-77
2023/11/04 07:51:21;;;;;;;29.33;13.73;;;;;;;17.93;100.00;98928.72;122631;1109;104361;-77
2023/11/04 07:53:52;;;;;;;24.57;12.13;;;;;;;17.99;100.00;98927.73;122701;1109;104347;-77
2023/11/04 07:56:23;;;;;;;24.60;10.97;;;;;;;18.01;100.00;98931.22;123040;1109;104213;-79
2023/11/04 07:58:55;;;;;;;26.20;10.95;;;;;;;18.02;100.00;98943.59;123012;1108;104284;-77
2023/11/04 08:01:26;;;;;;;24.30;10.93;;;;;;;18.04;100.00;98936.47;122819;1106;104254;-78
2023/11/04 08:03:57;;;;;;;21.93;10.53;;;;;;;18.05;100.00;98932.92;122942;1108;104320;-78
2023/11/04 08:06:29;;;;;;;24.60;11.60;;;;;;;18.04;100.00;98925.86;122885;1109;104415;-77
2023/11/04 08:09:00;;;;;;;24.70;11.53;;;;;;;18.06;100.00;98940.85;122956;1108;104273;-78
2023/11/04 08:11:31;;;;;;;21.57;11.03;;;;;;;18.07;100.00;98936.41;123012;1109;104431;-78
2023/11/04 08:14:03;;;;;;;21.13;10.47;;;;;;;18.08;100.00;98940.83;122904;1108;104297;-77
2023/11/04 08:16:34;;;;;;;22.13;10.00;;;;;;;18.08;100.00;98920.45;122775;1109;104287;-76
2023/11/04 08:19:05;;;;;;;21.20;9.57;;;;;;;18.11;100.00;98916.88;122665;1108;104361;-77
2023/11/04 08:21:36;;;;;;;23.37;10.23;;;;;;;18.09;100.00;98918.66;123007;1109;104188;-78
2023/11/04 08:24:08;;;;;;;21.60;9.57;;;;;;;18.07;100.00;98918.70;123040;1108;104361;-77
2023/11/04 08:26:42;;;;;;;22.30;9.07;;;;;;;18.04;100.00;98929.38;122942;1108;104284;-78
2023/11/04 08:29:13;;;;;;;22.62;9.40;;;;;;;18.01;100.00;98936.53;122849;1108;104303;-77
2023/11/04 08:31:44;;;;;;;20.60;9.30;;;;;;;17.99;100.00;98936.56;122806;1109;104367;-77
2023/11/04 08:34:16;;;;;;;23.15;8.90;;;;;;;17.99;100.00;98930.39;122837;1109;104428;-81
2023/11/04 08:36:48;;;;;;;19.23;8.47;;;;;;;17.98;100.00;98932.14;122850;1109;104387;-77
2023/11/04 08:39:20;;;;;;;20.13;8.63;;;;;;;17.96;100.00;98929.52;122882;1108;104284;-80
2023/11/04 08:41:51;;;;;;;22.57;8.07;;;;;;;17.91;100.00;98919.92;123340;1109;104300;-79
2023/11/04 08:44:22;;;;;;;19.37;8.73;;;;;;;17.88;100.00;98891.66;123102;1108;104312;-78
2023/11/04 08:46:56;;;;;;;19.80;8.23;;;;;;;17.87;100.00;98899.61;123039;1109;104264;-79
2023/11/04 08:49:27;;;;;;;19.45;8.23;;;;;;;17.87;100.00;98907.58;123113;1108;104264;-79
2023/11/04 08:51:58;;;;;;;20.37;8.90;;;;;;;17.87;100.00;98911.13;123141;1109;104188;-79
2023/11/04 08:54:30;;;;;;;21.03;8.37;;;;;;;17.91;100.00;98910.17;122968;1109;104380;-78
2023/11/04 08:57:01;;;;;;;18.70;8.40;;;;;;;17.96;100.00;98895.02;122841;1109;104383;-77
2023/11/04 08:59:33;;;;;;;19.50;7.80;;;;;;;18.01;100.00;98894.93;122988;1108;104293;-79
2023/11/04 09:02:07;;;;;;;18.50;8.50;;;;;;;18.10;100.00;98891.23;123004;1109;104223;-76
2023/11/04 09:04:38;;;;;;;17.90;8.05;;;;;;;18.18;100.00;98886.63;122942;1107;104258;-78
2023/11/04 09:07:10;;;;;;;17.67;8.20;;;;;;;18.28;100.00;98890.84;122876;1109;104312;-77
2023/11/04 09:09:42;;;;;;;19.23;7.03;;;;;;;18.37;100.00;98891.55;122958;1108;104398;-75
2023/11/04 09:12:14;;;;;;;17.60;7.15;;;;;;;18.44;100.00;98882.55;122797;1109;104258;-81
2023/11/04 09:14:45;;;;;;;16.40;6.73;;;;;;;18.48;100.00;98882.45;122829;1107;104376;-77
2023/11/04 09:17:17;;;;;;;19.45;6.80;;;;;;;18.54;100.00;98867.27;122915;1108;104337;-79
2023/11/04 09:19:48;;;;;;;15.00;6.17;;;;;;;18.58;100.00;98868.95;123027;1108;104303;-82
2023/11/04 09:22:20;;;;;;;15.57;6.63;;;;;;;18.57;100.00;98868.06;123052;1109;104333;-79
2023/11/04 09:24:52;;;;;;;15.07;5.87;;;;;;;18.55;100.00;98855.75;123215;1108;104261;-76
2023/11/04 09:27:24;;;;;;;12.90;5.47;;;;;;;18.55;100.00;98840.67;123112;1108;104309;-76
2023/11/04 09:29:55;;;;;;;11.43;5.50;;;;;;;18.57;100.00;98825.56;122974;1109;104217;-77
2023/11/04 09:32:27;;;;;;;11.73;5.30;;;;;;;18.67;100.00;98819.14;122992;1109;104259;-77
2023/11/04 09:34:58;;;;;;;16.17;5.40;;;;;;;18.73;100.00;98815.47;122862;1109;104433;-77
2023/11/04 09:37:29;;;;;;;14.57;5.97;;;;;;;18.79;100.00;98825.05;123063;1108;104447;-77
2023/11/04 09:40:01;;;;;;;12.97;5.17;;;;;;;18.78;100.00;98831.30;123165;1107;104306;-79
2023/11/04 09:42:33;;;;;;;9.23;4.83;;;;;;;18.76;100.00;98825.13;122944;1109;102272;-76
2023/11/04 09:45:05;;;;;;;13.80;5.30;;;;;;;18.78;100.00;98839.27;123114;1108;104272;-76
2023/11/04 09:47:36;;;;;;;12.60;5.17;;;;;;;18.84;100.00;98839.12;123026;1109;104411;-77
2023/11/04 09:50:10;;;;;;;12.90;4.80;;;;;;;18.93;100.00;98827.41;123167;1109;104259;-78
2023/11/04 09:52:47;;;;;;;14.43;4.25;;;;;;;19.02;100.00;98827.17;123492;1108;104236;-77
2023/11/04 09:55:19;;;;;;;10.50;4.20;;;;;;;19.08;100.00;98834.13;123162;1109;104708;-76
2023/11/04 09:57:51;;;;;;;10.77;4.27;;;;;;;19.12;100.00;98826.04;123312;1108;104229;-78
2023/11/04 10:00:23;;;;;;;10.83;4.23;;;;;;;19.12;100.00;98823.38;123135;1108;104520;-78
2023/11/04 10:02:54;;;;;;;10.07;4.27;;;;;;;19.14;100.00;98831.31;123385;1109;104258;-78
2023/11/04 10:05:27;;;;;;;7.57;4.07;;;;;;;19.14;99.51;98833.97;123338;1108;104258;-78
2023/11/04 10:07:58;;;;;;;9.77;4.20;;;;;;;19.12;99.67;98834.02;123162;1109;104290;-78
2023/11/04 10:10:30;;;;;;;8.03;3.83;;;;;;;19.11;98.84;98824.28;123180;1109;104297;-77
2023/11/04 10:13:01;;;;;;;7.67;3.83;;;;;;;19.14;99.02;98826.00;123170;1109;104222;-77
2023/11/04 10:15:33;;;;;;;8.60;3.90;;;;;;;19.18;99.11;98825.88;123071;1109;104291;-76
2023/11/04 10:18:04;;;;;;;8.45;3.70;;;;;;;19.22;98.79;98821.34;122971;1108;104364;-77
2023/11/04 10:20:36;;;;;;;8.83;3.90;;;;;;;19.24;98.80;98798.23;123092;1109;104233;-78
2023/11/04 10:23:07;;;;;;;10.83;3.87;;;;;;;19.33;98.83;98787.35;123009;1109;104280;-77
2023/11/04 10:25:39;;;;;;;6.77;4.07;;;;;;;19.44;98.04;98780.87;123030;1108;104878;-77
2023/11/04 10:28:12;;;;;;;7.43;3.50;;;;;;;19.55;98.15;98784.09;123066;1107;104258;-78
2023/11/04 10:30:43;;;;;;;6.90;3.60;;;;;;;19.63;97.44;98775.90;123183;1108;104252;-78
2023/11/04 10:33:18;;;;;;;9.80;3.90;;;;;;;19.66;97.58;98754.52;123053;1108;104271;-78
2023/11/04 10:35:51;;;;;;;8.87;3.80;;;;;;;19.72;97.66;98744.56;123265;1109;104220;-78
2023/11/04 10:38:24;;;;;;;7.27;3.20;;;;;;;19.78;97.39;98737.38;123207;1109;104245;-79
2023/11/04 10:40:56;;;;;;;6.53;3.33;;;;;;;19.82;96.16;98723.03;123287;1107;104246;-78
2023/11/04 10:43:29;;;;;;;10.23;3.60;;;;;;;19.83;96.99;98733.63;123177;1106;104184;-77
2023/11/04 10:46:07;;;;;;;5.83;3.07;;;;;;;19.85;95.99;98729.16;123131;1109;104223;-78
2023/11/04 10:48:44;;;;;;;6.97;3.37;;;;;;;19.91;96.11;98739.62;122995;1109;104268;-78
2023/11/04 10:51:24;;;;;;;7.37;2.87;;;;;;;19.93;95.45;98716.48;123016;1109;104297;-79
2023/11/04 10:54:02;;;;;;;8.53;2.93;;;;;;;19.96;94.31;98720.84;122878;1109;104361;-77
2023/11/04 10:56:42;;;;;;;5.27;3.03;;;;;;;19.98;94.26;98719.00;123230;1108;104238;-79
2023/11/04 10:59:23;;;;;;;7.47;2.90;;;;;;;20.02;94.86;98730.41;122938;1109;104296;-77
2023/11/04 11:01:57;;;;;;;8.20;3.00;;;;;;;20.02;94.14;98736.59;123126;1108;104376;-81
2023/11/04 11:04:29;;;;;;;5.73;2.67;;;;;;;20.05;93.46;98743.63;122931;1108;104466;-79
2023/11/04 11:07:02;;;;;;;6.80;3.27;;;;;;;20.09;93.67;98746.15;123020;1108;104262;-77
2023/11/04 11:09:34;;;;;;;7.63;2.90;;;;;;;20.12;92.84;98763.83;122889;1108;104300;-79
2023/11/04 11:12:10;;;;;;;8.43;3.00;;;;;;;20.13;92.97;98775.34;122997;1109;104293;-80
2023/11/04 11:14:43;;;;;;;5.83;2.50;;;;;;;20.10;92.29;98747.91;123072;1109;104363;-78
2023/11/04 11:17:14;;;;;;;7.13;3.33;;;;;;;20.08;89.21;98762.17;123075;1109;104376;-77
2023/11/04 11:19:51;;;;;;;8.00;3.40;;;;;;;20.08;89.28;98764.83;122914;1109;104322;-77
2023/11/04 11:22:26;;;;;;;6.37;3.00;;;;;;;20.09;88.54;98774.58;122957;1109;104211;-77